Flight Track Log - Related Links

Times and Time Zones

All times are in EDT time to prevent confusion due to time zone crossing. See the SWA2955 flight status page for this flight to view local times or setup timezone preferences in your user account.

Time Position Orientation Groundspeed Altitude Reporting Facility
EDT Latitude Longitude Course Direction KTS MPH feet Rate Location/Type
Sun 07:33:18 PM 33.4314 -112.0622 266° West 164 189 3,100  Level Albuquerque Center
Sun 07:34:20 PM 33.4333 -112.1339 272° West 213 245 6,500 3,366 Climbing Albuquerque Center
Sun 07:35:21 PM 33.4650 -112.1881 305° West 247 284 10,000 2,439 Climbing Albuquerque Center
Sun 07:36:23 PM 33.5456 -112.1908 358° North 310 357 11,500 2,878 Climbing Albuquerque Center
Sun 07:37:24 PM 33.6608 -112.2250 346° North 355 409 15,900 3,805 Climbing Albuquerque Center
Sun 07:38:26 PM 33.7594 -112.2550 346° North 361 415 19,300 2,855 Climbing Albuquerque Center
Sun 07:39:28 PM 33.8642 -112.2853 347° North 381 438 21,800 2,634 Climbing Albuquerque Center
Sun 07:40:29 PM 33.9736 -112.3175 346° North 399 459 24,700 2,585 Climbing Albuquerque Center
Sun 07:41:31 PM 34.0425 -112.4006 315° West 369 425 27,100 2,098 Climbing Albuquerque Center
Sun 07:42:32 PM 34.0650 -112.5161 283° West 354 407 29,000 2,049 Climbing Albuquerque Center
Sun 07:43:34 PM 34.0886 -112.6303 284° West 352 405 31,300 1,452 Climbing Albuquerque Center
Sun 07:44:36 PM 34.1125 -112.7467 284° West 355 409 32,000 341 Climbing Albuquerque Center
Sun 07:45:37 PM 34.1425 -112.8961 284° West 375 432 32,000  Level Albuquerque Center
Sun 07:46:39 PM 34.1678 -113.0225 284° West 384 442 32,000  Level Albuquerque Center
Sun 07:47:41 PM 34.1917 -113.1481 283° West 386 444 32,000  Level Albuquerque Center
Sun 07:48:42 PM 34.2161 -113.2744 283° West 386 444 32,000 732 Level Albuquerque Center
Sun 07:49:44 PM 34.2389 -113.4008 282° West 386 444 33,500 968 Climbing Albuquerque Center
Sun 07:50:46 PM 34.2628 -113.5231 283° West 381 438 34,000 244 Climbing Albuquerque Center
Sun 07:51:47 PM 34.2919 -113.6636 284° West 381 438 34,000  Level Albuquerque Center
Sun 07:52:49 PM 34.3161 -113.7864 283° West 377 434 34,000  Level Albuquerque Center
Sun 07:53:51 PM 34.3403 -113.9119 283° West 380 437 34,000  Level Albuquerque Center
Sun 07:54:53 PM 34.3628 -114.0350 283° West 377 434 34,000 410 Level Albuquerque Center
Sun 07:55:48 PM 34.3881 -114.1606 284° West 375 432 34,800 1,026 Climbing Los Angeles Center
Sun 07:56:50 PM 34.4111 -114.2797 283° West 366 421 36,000 581 Climbing Los Angeles Center
Sun 07:57:52 PM 34.4331 -114.4008 282° West 369 425 36,000  Level Los Angeles Center
Sun 07:58:54 PM 34.4561 -114.5233 283° West 372 428 36,000 -145 Level Los Angeles Center
Sun 07:59:56 PM 34.4786 -114.6464 283° West 373 429 35,700 -484 Descending Los Angeles Center
Sun 08:00:58 PM 34.5053 -114.7931 282° West 373 429 35,000 -387 Descending Los Angeles Center
Sun 08:02:00 PM 34.5278 -114.9169 282° West 376 433 34,900  Descending Los Angeles Center
Sun 08:03:02 PM 34.5506 -115.0403 283° West 376 433 35,000 48 Climbing Los Angeles Center
Sun 08:04:04 PM 34.5725 -115.1622 282° West 373 429 35,000  Level Los Angeles Center
Sun 08:05:06 PM 34.5936 -115.2836 282° West 371 427 35,000  Level Los Angeles Center
Sun 08:06:08 PM 34.6150 -115.4047 282° West 370 426 35,000 -194 Level Los Angeles Center
Sun 08:07:10 PM 34.6414 -115.5533 282° West 376 433 34,600 -571 Descending Los Angeles Center
Sun 08:08:14 PM 34.6611 -115.6731 281° West 381 438 33,800 -864 Descending Los Angeles Center
Sun 08:09:15 PM 34.6839 -115.8022 282° West 391 450 32,800 -885 Descending Los Angeles Center
Sun 08:10:16 PM 34.7025 -115.9067 282° West 396 456 32,000 -1,258 Descending Los Angeles Center
Sun 08:11:19 PM 34.7281 -116.0603 281° West 389 448 30,200 -1,776 Descending Los Angeles Center
Sun 08:12:21 PM 34.7522 -116.2061 281° West 372 428 28,300 -2,129 Descending Los Angeles Center
Sun 08:13:23 PM 34.7739 -116.3244 283° West 363 418 25,800 -2,226 Descending Los Angeles Center
Sun 08:14:25 PM 34.7931 -116.4408 281° West 357 411 23,700 -1,645 Descending Los Angeles Center
Sun 08:15:27 PM 34.7878 -116.5583 267° West 348 400 22,400 -823 Descending Los Angeles Center
Sun 08:16:29 PM 34.7761 -116.6744 263° West 347 399 22,000 -194 Descending Los Angeles Center
Sun 08:17:31 PM 34.7656 -116.7911 264° West 347 399 22,000  Level Los Angeles Center
Sun 08:18:33 PM 34.7511 -116.9342 263° West 352 405 22,000  Level Los Angeles Center
Sun 08:19:35 PM 34.7381 -117.0522 262° West 351 404 22,000  Level Los Angeles Center
Sun 08:20:38 PM 34.7264 -117.1700 263° West 351 404 22,000 -576 Level Los Angeles Center
Sun 08:21:40 PM 34.7142 -117.2869 263° West 349 402 20,800 -1,548 Descending Los Angeles Center
Sun 08:22:42 PM 34.7017 -117.3986 262° West 337 388 18,800 -1,984 Descending Los Angeles Center
Sun 08:23:44 PM 34.6908 -117.5081 263° West 327 376 16,700 -1,984 Descending Los Angeles Center
Sun 08:24:46 PM 34.6792 -117.6167 263° West 323 372 14,700 -1,306 Descending Los Angeles Center
Sun 08:25:48 PM 34.6581 -117.7444 259° West 322 371 14,000 -1,403 Descending Los Angeles Center
Sun 08:26:50 PM 34.6453 -117.8544 262° West 328 377 11,800 -1,790 Descending Los Angeles Center
Sun 08:27:52 PM 34.6292 -117.9608 260° West 324 373 10,300 -1,355 Descending Los Angeles Center
Sun 08:28:54 PM 34.6144 -118.0558 259° West 294 338 9,000 -1,113 Descending Los Angeles Center
Sun 08:29:56 PM 34.5983 -118.1589 259° West 284 327 8,000 -484 Descending Los Angeles Center
Sun 08:30:58 PM 34.5831 -118.2503 259° West 278 320 8,000  Level Los Angeles Center
Sun 08:32:00 PM 34.5689 -118.3417 259° West 276 318 8,000 -480 Level Los Angeles Center
Sun 08:33:03 PM 34.5303 -118.4172 238° Southwest 279 321 7,000 -480 Descending Los Angeles Center
Sun 08:34:05 PM 34.4619 -118.4867 220° Southwest 264 304 7,000 -645 Level Los Angeles Center
Sun 08:36:09 PM 34.3550 -118.6014 222° Southwest 254 292 5,000 -714 Descending Los Angeles Center
Sun 08:37:10 PM 34.3131 -118.6344 213° Southwest 240 276 4,800 -677 Descending Los Angeles Center
Sun 08:38:13 PM 34.2364 -118.6372 182° South 231 266 3,600 -864 Descending Los Angeles Center
Sun 08:39:15 PM 34.1964 -118.5975 141° Southeast 226 260 3,000 -290 Descending Los Angeles Center
Sun 08:40:17 PM 34.2003 -118.5206 86° East 196 226 3,000 -286 Level Los Angeles Center
Sun 08:41:21 PM 34.2000 -118.4500 90° East 168 193 2,400 -645 Descending Southern California TRACON
Sun 08:43:23 PM 34.1981 -118.3647 92° East 147 169 1,000 -689 Descending Los Angeles Center

Login

Don't have an account? Register now (free) for customized features, flight alerts, and more!